Time;durP1;ratioP1;P1;durP2;ratioP2;P2;SDS_P1;SDS_P2;PMS_P1;PMS_P2;Temp;Humidity;BMP_temperature;BMP_pressure;BME280_temperature;BME280_humidity;BME280_pressure;Samples;Min_cycle;Max_cycle;Signal;HPM_P1;HPM_P2
2022/01/09 00:00:53;;;;;;;7.50;3.50;;;;;;;-3.10;100.00;100010.59;1770788;81;21014;-71
2022/01/09 00:03:20;;;;;;;8.50;3.30;;;;;;;-3.10;100.00;100003.98;1720377;82;21020;-72
2022/01/09 00:05:47;;;;;;;7.33;3.80;;;;;;;-3.11;100.00;100003.14;1737423;83;21072;-71
2022/01/09 00:08:14;;;;;;;9.03;3.60;;;;;;;-3.10;100.00;100007.50;1768912;80;21017;-71
2022/01/09 00:10:47;;;;;;;7.20;3.27;;;;;;;-3.08;100.00;100006.94;1768475;80;21068;-72
2022/01/09 00:13:11;;;;;;;10.00;4.00;;;;;;;-3.06;100.00;99994.48;1747576;81;21056;-70
2022/01/09 00:15:38;;;;;;;9.10;4.40;;;;;;;-3.04;100.00;99987.78;1769197;81;21020;-71
2022/01/09 00:18:07;;;;;;;8.57;4.03;;;;;;;-3.03;100.00;99985.50;1767561;81;21016;-71
2022/01/09 00:20:34;;;;;;;9.97;4.30;;;;;;;-3.00;100.00;99980.53;1768276;80;21020;-71
2022/01/09 00:23:01;;;;;;;10.97;4.40;;;;;;;-3.01;100.00;99975.72;1743128;82;21591;-71
2022/01/09 00:25:28;;;;;;;12.00;4.00;;;;;;;-2.99;100.00;99971.19;1737973;82;21588;-71
2022/01/09 00:27:55;;;;;;;8.67;3.80;;;;;;;-2.99;100.00;99955.31;1745543;82;21611;-71
2022/01/09 00:30:23;;;;;;;9.50;4.00;;;;;;;-2.98;100.00;99958.32;1737911;82;21493;-71
2022/01/09 00:32:51;;;;;;;7.40;3.83;;;;;;;-2.98;100.00;99953.03;1738107;82;21028;-70
2022/01/09 00:35:18;;;;;;;11.40;4.23;;;;;;;-2.97;100.00;99952.11;1737762;82;21030;-70
2022/01/09 00:37:45;;;;;;;7.13;3.70;;;;;;;-2.98;100.00;99944.25;1737787;82;21036;-70
2022/01/09 00:40:16;;;;;;;8.10;3.43;;;;;;;-3.01;100.00;99942.64;1720881;83;21032;-72
2022/01/09 00:42:43;;;;;;;6.90;3.50;;;;;;;-3.02;100.00;99946.70;1737828;82;21009;-71
2022/01/09 00:45:11;;;;;;;7.83;3.50;;;;;;;-3.02;100.00;99942.73;1745565;82;21032;-71
2022/01/09 00:47:38;;;;;;;8.60;4.43;;;;;;;-3.04;100.00;99928.27;1745548;82;21049;-71
2022/01/09 00:50:07;;;;;;;8.73;3.73;;;;;;;-3.07;100.00;99930.59;1737850;82;21053;-70
2022/01/09 00:52:34;;;;;;;10.13;4.13;;;;;;;-3.09;100.00;99920.58;1737883;82;21036;-71
2022/01/09 00:55:02;;;;;;;7.60;3.70;;;;;;;-3.09;100.00;99913.12;1745689;82;21052;-70
2022/01/09 00:57:29;;;;;;;8.37;3.83;;;;;;;-3.08;100.00;99905.55;1745400;82;21048;-71
2022/01/09 00:59:56;;;;;;;6.90;3.83;;;;;;;-3.07;100.00;99896.20;1737960;82;21036;-71
2022/01/09 01:02:23;;;;;;;6.37;3.43;;;;;;;-3.05;100.00;99884.22;1730092;82;21027;-71
2022/01/09 01:04:51;;;;;;;9.03;3.83;;;;;;;-3.07;100.00;99883.45;1708635;84;21043;-71
2022/01/09 01:07:20;;;;;;;6.60;3.57;;;;;;;-3.08;100.00;99870.71;1679222;85;21030;-72
2022/01/09 01:09:47;;;;;;;10.17;4.07;;;;;;;-3.06;100.00;99867.98;1602529;89;21043;-71
2022/01/09 01:12:15;;;;;;;10.20;4.33;;;;;;;-3.09;100.00;99858.41;1602214;89;21148;-71
2022/01/09 01:14:44;;;;;;;9.67;4.57;;;;;;;-3.07;100.00;99847.74;1608703;89;21052;-70
2022/01/09 01:17:19;;;;;;;10.57;4.80;;;;;;;-3.09;100.00;99835.92;1631372;88;21099;-71
2022/01/09 01:19:46;;;;;;;9.67;3.97;;;;;;;-3.10;100.00;99827.63;1631012;88;21068;-70
2022/01/09 01:22:14;;;;;;;9.63;4.50;;;;;;;-3.10;100.00;99818.81;1631456;88;21044;-71
2022/01/09 01:24:42;;;;;;;10.63;4.50;;;;;;;-3.10;100.00;99811.76;1631228;88;21079;-70
2022/01/09 01:27:10;;;;;;;11.43;4.40;;;;;;;-3.11;100.00;99807.39;1600688;89;21102;-69
2022/01/09 01:29:39;;;;;;;8.23;4.23;;;;;;;-3.10;100.00;99813.08;1600835;90;21066;-70
2022/01/09 01:32:07;;;;;;;10.20;4.47;;;;;;;-3.09;100.00;99798.89;1582957;91;21125;-71
2022/01/09 01:34:35;;;;;;;10.27;4.40;;;;;;;-3.08;100.00;99795.77;1638846;87;21050;-71
2022/01/09 01:37:02;;;;;;;9.60;4.50;;;;;;;-3.08;100.00;99794.00;1638295;87;21049;-71
2022/01/09 01:39:30;;;;;;;12.60;4.80;;;;;;;-3.09;100.00;99793.61;1638924;87;21629;-70
2022/01/09 01:41:57;;;;;;;12.27;4.67;;;;;;;-3.07;100.00;99781.13;1639154;87;21049;-71
2022/01/09 01:44:24;;;;;;;11.53;4.70;;;;;;;-3.07;100.00;99789.06;1639000;87;21061;-72
2022/01/09 01:46:52;;;;;;;9.30;4.30;;;;;;;-3.06;100.00;99784.17;1638137;87;21121;-70
2022/01/09 01:49:19;;;;;;;12.90;5.20;;;;;;;-3.04;100.00;99779.28;1639045;87;21073;-71
2022/01/09 01:51:46;;;;;;;12.90;4.70;;;;;;;-3.04;100.00;99776.16;1638443;87;21033;-72
2022/01/09 01:54:14;;;;;;;11.50;5.03;;;;;;;-3.03;100.00;99761.12;1638797;87;21081;-71
2022/01/09 01:56:41;;;;;;;12.87;4.97;;;;;;;-3.02;100.00;99756.22;1637521;87;21070;-71
2022/01/09 01:59:09;;;;;;;14.40;5.13;;;;;;;-3.02;100.00;99748.28;1639087;87;21658;-70
2022/01/09 02:01:37;;;;;;;11.70;4.83;;;;;;;-3.02;100.00;99737.22;1638140;87;21045;-71
2022/01/09 02:04:05;;;;;;;14.50;5.23;;;;;;;-2.99;100.00;99730.88;1638718;87;21070;-73
2022/01/09 02:06:34;;;;;;;16.83;5.50;;;;;;;-2.98;100.00;99718.05;1647601;86;21071;-70
2022/01/09 02:09:03;;;;;;;15.53;5.57;;;;;;;-2.97;100.00;99713.99;1656664;87;21509;-70
2022/01/09 02:11:31;;;;;;;14.50;5.47;;;;;;;-2.96;100.00;99706.90;1644771;86;21058;-71
2022/01/09 02:13:58;;;;;;;14.30;6.23;;;;;;;-2.97;100.00;99710.50;1623028;87;21054;-70
2022/01/09 02:16:26;;;;;;;15.27;6.10;;;;;;;-2.97;100.00;99697.28;1644337;87;21570;-71
2022/01/09 02:18:53;;;;;;;15.13;6.13;;;;;;;-2.97;100.00;99696.80;1648541;84;21033;-71
2022/01/09 02:21:22;;;;;;;16.00;5.90;;;;;;;-2.96;100.00;99691.86;1673591;86;21538;-71
2022/01/09 02:23:49;;;;;;;17.00;6.07;;;;;;;-2.95;100.00;99684.80;1687023;82;21106;-71
2022/01/09 02:26:18;;;;;;;18.10;6.73;;;;;;;-2.93;100.00;99672.32;1724724;83;21583;-72
2022/01/09 02:28:47;;;;;;;16.90;5.97;;;;;;;-2.90;100.00;99670.82;1700115;83;21114;-71
2022/01/09 02:31:15;;;;;;;14.60;6.00;;;;;;;-2.89;100.00;99659.27;1724181;83;21132;-70
2022/01/09 02:33:43;;;;;;;18.43;6.67;;;;;;;-2.88;100.00;99649.92;1725166;83;21045;-71
2022/01/09 02:36:10;;;;;;;18.57;6.77;;;;;;;-2.87;100.00;99652.95;1716554;83;21129;-70
2022/01/09 02:38:37;;;;;;;15.70;6.07;;;;;;;-2.86;100.00;99644.05;1662611;86;21174;-71
2022/01/09 02:41:04;;;;;;;20.23;7.30;;;;;;;-2.86;100.00;99640.57;1662997;86;21076;-71
2022/01/09 02:43:31;;;;;;;16.97;6.37;;;;;;;-2.86;100.00;99635.28;1662849;86;21055;-71
2022/01/09 02:48:35;;;;;;;17.37;6.67;;;;;;;-2.87;100.00;99618.56;1640638;86;21072;-71
2022/01/09 02:51:06;;;;;;;15.90;6.43;;;;;;;-2.85;100.00;99606.56;1655120;85;21101;-68
2022/01/09 02:53:34;;;;;;;17.53;6.33;;;;;;;-2.83;100.00;99608.63;1678552;85;21020;-69
2022/01/09 02:55:58;;;;;;;15.03;6.00;;;;;;;-2.83;100.00;99595.40;1655990;85;21004;-70
2022/01/09 02:58:29;;;;;;;16.13;6.53;;;;;;;-2.81;100.00;99597.95;1654495;86;21525;-70
2022/01/09 03:00:56;;;;;;;15.10;5.90;;;;;;;-2.82;100.00;99596.24;1632284;87;21100;-70
2022/01/09 03:03:23;;;;;;;13.20;5.70;;;;;;;-2.81;100.00;99594.83;1632130;87;21551;-70
2022/01/09 03:05:50;;;;;;;15.20;6.20;;;;;;;-2.81;100.00;99584.24;1631892;87;21087;-70
2022/01/09 03:08:24;;;;;;;15.43;5.40;;;;;;;-2.80;100.00;99573.17;1653904;87;21013;-70
2022/01/09 03:10:51;;;;;;;15.20;5.67;;;;;;;-2.80;100.00;99567.40;1631467;87;21064;-69
2022/01/09 03:13:18;;;;;;;12.90;5.47;;;;;;;-2.78;100.00;99562.02;1632038;87;21029;-70
2022/01/09 03:15:45;;;;;;;12.63;5.90;;;;;;;-2.80;100.00;99555.49;1628387;87;21603;-71
2022/01/09 03:18:13;;;;;;;13.43;6.00;;;;;;;-2.79;100.00;99545.77;1650234;87;21091;-70
2022/01/09 03:20:41;;;;;;;15.53;6.40;;;;;;;-2.79;100.00;99538.68;1630543;87;21076;-70
2022/01/09 03:23:08;;;;;;;15.50;6.30;;;;;;;-2.78;100.00;99539.52;1633100;87;21052;-71
2022/01/09 03:25:35;;;;;;;14.17;6.23;;;;;;;-2.78;100.00;99528.48;1642586;87;21549;-71
2022/01/09 03:28:02;;;;;;;11.07;5.67;;;;;;;-2.77;100.00;99532.81;1643637;85;21007;-69
2022/01/09 03:30:29;;;;;;;14.20;6.23;;;;;;;-2.77;100.00;99520.91;1706138;84;21506;-70
2022/01/09 03:32:56;;;;;;;15.43;6.20;;;;;;;-2.77;100.00;99507.67;1738504;82;21036;-69
2022/01/09 03:35:25;;;;;;;15.03;6.30;;;;;;;-2.76;100.00;99503.22;1744444;82;21012;-69
2022/01/09 03:37:52;;;;;;;11.77;5.70;;;;;;;-2.75;100.00;99503.60;1743798;82;21056;-70
2022/01/09 03:40:22;;;;;;;12.60;5.50;;;;;;;-2.75;100.00;99504.92;1743959;82;21000;-70
2022/01/09 03:42:51;;;;;;;14.67;5.93;;;;;;;-2.77;100.00;99498.41;1744257;82;21032;-71
2022/01/09 03:45:18;;;;;;;15.07;6.40;;;;;;;-2.75;100.00;99509.73;1744245;82;21016;-70
2022/01/09 03:47:45;;;;;;;12.77;6.03;;;;;;;-2.74;100.00;99502.19;1737949;83;21032;-71
2022/01/09 03:50:12;;;;;;;11.17;5.73;;;;;;;-2.73;100.00;99496.41;1743817;82;21058;-69
2022/01/09 03:52:40;;;;;;;15.17;6.20;;;;;;;-2.73;100.00;99491.95;1719952;83;21015;-72
2022/01/09 03:55:12;;;;;;;13.37;5.70;;;;;;;-2.71;100.00;99480.82;1738057;83;21009;-70
2022/01/09 03:57:39;;;;;;;11.57;5.40;;;;;;;-2.70;100.00;99480.34;1719654;83;21042;-70
2022/01/09 04:00:11;;;;;;;12.73;5.63;;;;;;;-2.70;100.00;99480.34;1738296;83;21036;-71
2022/01/09 04:02:41;;;;;;;12.43;5.58;;;;;;;-2.70;100.00;99466.63;1740232;82;21501;-71
2022/01/09 04:05:15;;;;;;;12.60;5.37;;;;;;;-2.69;100.00;99472.78;1737954;83;21378;-70
2022/01/09 04:07:42;;;;;;;12.57;5.07;;;;;;;-2.69;100.00;99471.46;1737799;82;21028;-71
2022/01/09 04:10:10;;;;;;;10.57;5.00;;;;;;;-2.69;100.00;99467.49;1737134;82;21008;-71
2022/01/09 04:12:47;;;;;;;11.83;5.40;;;;;;;-2.69;100.00;99459.06;1737607;83;21052;-71
2022/01/09 04:15:08;;;;;;;8.80;4.50;;;;;;;-2.69;100.00;99448.97;1741141;80;21572;-72
2022/01/09 04:20:05;;;;;;;11.90;4.83;;;;;;;-2.67;100.00;99440.44;1718986;82;21032;-72
2022/01/09 04:22:33;;;;;;;11.73;4.83;;;;;;;-2.67;100.00;99425.88;1706554;84;21040;-71
2022/01/09 04:25:00;;;;;;;8.60;4.47;;;;;;;-2.65;100.00;99431.08;1711800;84;21096;-71
2022/01/09 04:27:27;;;;;;;9.83;4.60;;;;;;;-2.63;100.00;99442.41;1706832;84;21040;-71
2022/01/09 04:29:54;;;;;;;8.47;4.30;;;;;;;-2.63;100.00;99434.47;1712263;83;21036;-70
2022/01/09 04:32:21;;;;;;;8.80;4.67;;;;;;;-2.64;100.00;99425.66;1706545;84;21541;-71
2022/01/09 04:34:50;;;;;;;12.63;5.00;;;;;;;-2.65;100.00;99424.47;1706578;84;21612;-70
2022/01/09 04:37:17;;;;;;;10.83;4.40;;;;;;;-2.65;100.00;99425.30;1711877;84;21079;-71
2022/01/09 04:39:47;;;;;;;8.47;4.43;;;;;;;-2.67;100.00;99422.76;1706617;84;21075;-72
2022/01/09 04:42:14;;;;;;;10.00;4.60;;;;;;;-2.67;100.00;99423.23;1688455;84;21521;-71
2022/01/09 04:44:42;;;;;;;10.00;4.87;;;;;;;-2.67;100.00;99429.37;1706427;84;21055;-71
2022/01/09 04:47:13;;;;;;;9.57;5.13;;;;;;;-2.67;100.00;99410.84;1706592;84;21006;-71
2022/01/09 04:49:41;;;;;;;11.87;5.03;;;;;;;-2.66;100.00;99407.72;1706775;84;21084;-70
2022/01/09 04:52:11;;;;;;;11.33;4.53;;;;;;;-2.65;100.00;99409.42;1688669;84;21060;-71
2022/01/09 04:54:37;;;;;;;9.43;4.53;;;;;;;-2.64;100.00;99415.07;1688533;84;21087;-71
2022/01/09 04:57:05;;;;;;;9.70;4.60;;;;;;;-2.62;100.00;99405.70;1687995;84;21706;-71
2022/01/09 04:59:32;;;;;;;10.57;4.80;;;;;;;-2.64;100.00;99398.35;1712182;84;21041;-70
2022/01/09 05:02:04;;;;;;;8.17;4.17;;;;;;;-2.63;100.00;99406.68;1708707;84;20990;-71
2022/01/09 05:04:31;;;;;;;9.77;4.80;;;;;;;-2.66;100.00;99403.74;1711706;83;21102;-70
2022/01/09 05:07:00;;;;;;;9.60;4.83;;;;;;;-2.65;100.00;99404.13;1725161;83;21074;-70
2022/01/09 05:09:27;;;;;;;9.60;4.53;;;;;;;-2.65;100.00;99408.10;1711823;84;21035;-71
2022/01/09 05:11:54;;;;;;;8.43;4.17;;;;;;;-2.66;100.00;99416.98;1725559;83;21047;-71
2022/01/09 05:14:21;;;;;;;8.07;4.10;;;;;;;-2.65;100.00;99412.55;1711926;84;21027;-71
2022/01/09 05:16:49;;;;;;;6.43;3.70;;;;;;;-2.63;100.00;99418.59;1711621;84;21022;-72
2022/01/09 05:19:27;;;;;;;10.77;4.47;;;;;;;-2.64;100.00;99412.42;1731560;82;20998;-70
2022/01/09 05:21:49;;;;;;;6.90;4.03;;;;;;;-2.63;100.00;99417.27;1688865;82;21033;-70
2022/01/09 05:24:16;;;;;;;7.83;4.17;;;;;;;-2.63;100.00;99408.00;1656765;86;21071;-70
2022/01/09 05:26:43;;;;;;;8.73;4.63;;;;;;;-2.61;100.00;99409.58;1770797;80;20998;-70
2022/01/09 05:29:10;;;;;;;9.43;4.77;;;;;;;-2.61;100.00;99407.42;1701009;84;21057;-70
2022/01/09 05:31:37;;;;;;;10.30;4.30;;;;;;;-2.59;100.00;99410.32;1748571;82;21068;-70
2022/01/09 05:34:05;;;;;;;7.67;3.70;;;;;;;-2.57;100.00;99400.95;1770736;80;20998;-70
2022/01/09 05:36:32;;;;;;;9.73;4.63;;;;;;;-2.56;100.00;99389.43;1699843;84;21506;-71
2022/01/09 05:38:59;;;;;;;7.00;4.17;;;;;;;-2.57;100.00;99377.97;1747381;82;21529;-72
2022/01/09 05:41:26;;;;;;;13.70;5.07;;;;;;;-2.56;100.00;99362.96;1729792;82;21077;-71
2022/01/09 05:43:53;;;;;;;10.53;4.93;;;;;;;-2.56;100.00;99361.15;1747461;82;21041;-70
2022/01/09 05:46:20;;;;;;;9.57;4.90;;;;;;;-2.54;100.00;99360.56;1730018;82;20990;-71
2022/01/09 05:48:47;;;;;;;9.87;4.80;;;;;;;-2.52;100.00;99354.69;1771768;80;21034;-72
2022/01/09 05:51:14;;;;;;;9.20;4.40;;;;;;;-2.51;100.00;99348.94;1730076;82;21077;-70
2022/01/09 05:53:41;;;;;;;10.67;4.80;;;;;;;-2.50;100.00;99353.27;1770772;80;21002;-70
2022/01/09 05:56:14;;;;;;;9.27;4.40;;;;;;;-2.51;100.00;99354.23;1728183;82;21030;-69
2022/01/09 05:58:41;;;;;;;10.43;5.00;;;;;;;-2.49;100.00;99354.97;1770917;80;21033;-71
2022/01/09 06:01:08;;;;;;;11.33;5.33;;;;;;;-2.49;100.00;99353.65;1729787;82;21006;-70
2022/01/09 06:03:35;;;;;;;9.90;5.07;;;;;;;-2.45;100.00;99350.31;1677257;85;21318;-70
2022/01/09 06:06:02;;;;;;;8.17;4.67;;;;;;;-2.44;100.00;99338.75;1664711;86;21098;-70
2022/01/09 06:08:29;;;;;;;8.80;4.43;;;;;;;-2.43;100.00;99343.94;1681841;85;20990;-70
2022/01/09 06:10:56;;;;;;;8.40;4.50;;;;;;;-2.42;100.00;99339.52;1681729;85;20987;-71
2022/01/09 06:13:23;;;;;;;8.90;4.57;;;;;;;-2.39;100.00;99333.53;1669831;86;21032;-70
2022/01/09 06:15:50;;;;;;;8.00;4.10;;;;;;;-2.37;100.00;99328.14;1668692;86;21098;-71
2022/01/09 06:18:20;;;;;;;7.80;4.30;;;;;;;-2.36;100.00;99312.59;1677602;85;21032;-69
2022/01/09 06:20:48;;;;;;;8.07;4.20;;;;;;;-2.36;100.00;99306.81;1673895;84;21031;-70
2022/01/09 06:25:44;;;;;;;8.93;4.67;;;;;;;-2.33;100.00;99285.43;1626204;87;21070;-70
2022/01/09 06:28:11;;;;;;;10.13;5.10;;;;;;;-2.33;100.00;99292.05;1632335;87;21131;-70
2022/01/09 06:30:39;;;;;;;10.13;5.00;;;;;;;-2.31;100.00;99297.24;1656161;87;21023;-71
2022/01/09 06:33:06;;;;;;;11.73;4.70;;;;;;;-2.29;100.00;99294.84;1654536;87;21048;-71
2022/01/09 06:35:34;;;;;;;12.13;5.43;;;;;;;-2.23;100.00;99298.02;1655939;87;21063;-70
2022/01/09 06:38:01;;;;;;;14.23;8.30;;;;;;;-2.21;100.00;99293.45;1654352;87;21017;-70
2022/01/09 06:40:28;;;;;;;6.93;4.33;;;;;;;-2.16;100.00;99258.22;1627184;87;21504;-70
2022/01/09 06:42:55;;;;;;;9.03;4.53;;;;;;;-2.11;100.00;99254.77;1605540;87;21032;-70
2022/01/09 06:45:23;;;;;;;10.40;5.50;;;;;;;-2.12;100.00;99249.95;1654640;87;21037;-70
2022/01/09 06:47:50;;;;;;;7.60;4.40;;;;;;;-2.11;100.00;99247.69;1605143;88;21045;-70
2022/01/09 06:50:17;;;;;;;9.10;4.60;;;;;;;-2.09;100.00;99254.17;1627306;87;21039;-72
2022/01/09 06:52:44;;;;;;;7.17;4.43;;;;;;;-2.05;100.00;99244.20;1627211;87;21024;-70
2022/01/09 06:55:12;;;;;;;9.97;5.13;;;;;;;-2.02;100.00;99236.05;1632522;87;21045;-70
2022/01/09 06:57:39;;;;;;;8.07;4.33;;;;;;;-1.98;100.00;99242.34;1656216;87;21531;-70
2022/01/09 07:00:08;;;;;;;10.10;5.20;;;;;;;-1.96;100.00;99231.16;1654722;87;21664;-71
2022/01/09 07:02:36;;;;;;;8.47;4.50;;;;;;;-1.97;100.00;99224.15;1651290;87;21602;-71
2022/01/09 07:05:04;;;;;;;9.30;4.47;;;;;;;-1.96;100.00;99219.23;1614678;88;21171;-73
2022/01/09 07:07:31;;;;;;;8.57;4.30;;;;;;;-1.98;100.00;99229.09;1615642;88;21591;-72
2022/01/09 07:09:58;;;;;;;8.20;4.90;;;;;;;-1.99;100.00;99226.55;1643642;86;21615;-73
2022/01/09 07:12:25;;;;;;;7.60;4.27;;;;;;;-2.01;100.00;99225.34;1666010;86;21051;-71
2022/01/09 07:14:53;;;;;;;8.27;4.60;;;;;;;-2.03;100.00;99211.84;1642910;86;21062;-71
2022/01/09 07:17:20;;;;;;;9.90;4.83;;;;;;;-2.03;100.00;99196.79;1665539;86;21086;-72
2022/01/09 07:19:48;;;;;;;8.37;4.80;;;;;;;-2.00;100.00;99195.70;1635152;87;21050;-71
2022/01/09 07:22:15;;;;;;;11.47;5.67;;;;;;;-1.97;100.00;99191.52;1621977;88;21582;-72
2022/01/09 07:24:42;;;;;;;12.00;5.57;;;;;;;-1.94;100.00;99186.84;1643437;87;21096;-71
2022/01/09 07:27:10;;;;;;;10.90;5.23;;;;;;;-1.88;100.00;99180.23;1650833;87;21136;-71
2022/01/09 07:29:37;;;;;;;11.87;5.30;;;;;;;-1.86;100.00;99167.75;1639778;85;21020;-72
2022/01/09 07:32:05;;;;;;;9.23;4.90;;;;;;;-1.82;100.00;99165.22;1645169;86;21097;-71
2022/01/09 07:34:32;;;;;;;9.63;4.90;;;;;;;-1.80;100.00;99159.33;1674954;86;21062;-70
2022/01/09 07:36:59;;;;;;;11.77;6.13;;;;;;;-1.78;100.00;99150.77;1674878;86;21031;-70
2022/01/09 07:39:30;;;;;;;11.03;5.53;;;;;;;-1.75;100.00;99143.09;1674882;86;21023;-71
2022/01/09 07:41:57;;;;;;;12.43;5.30;;;;;;;-1.72;100.00;99142.38;1675020;86;21086;-69
2022/01/09 07:44:26;;;;;;;10.13;5.87;;;;;;;-1.70;100.00;99143.56;1674964;85;21073;-69
2022/01/09 07:46:53;;;;;;;11.67;5.47;;;;;;;-1.68;100.00;99141.67;1644709;86;21090;-72
2022/01/09 07:49:20;;;;;;;9.43;4.83;;;;;;;-1.65;100.00;99132.63;1674506;85;21034;-72
2022/01/09 07:51:47;;;;;;;9.77;4.77;;;;;;;-1.65;100.00;99118.88;1674738;85;21054;-71
2022/01/09 07:54:14;;;;;;;9.27;5.17;;;;;;;-1.65;100.00;99101.66;1674417;86;21433;-71
2022/01/09 07:56:41;;;;;;;11.30;6.03;;;;;;;-1.64;100.00;99101.20;1674733;86;21086;-71
2022/01/09 07:59:09;;;;;;;16.80;7.57;;;;;;;-1.59;100.00;99099.88;1644268;86;21563;-72
2022/01/09 08:01:36;;;;;;;11.13;5.80;;;;;;;-1.56;100.00;99100.11;1675905;85;21070;-70
2022/01/09 08:04:03;;;;;;;15.53;6.47;;;;;;;-1.58;100.00;99092.27;1680912;85;21058;-71
2022/01/09 08:06:30;;;;;;;23.17;10.53;;;;;;;-1.56;100.00;99087.72;1653408;85;21043;-71
2022/01/09 08:08:57;;;;;;;18.57;8.17;;;;;;;-1.55;100.00;99084.58;1630237;88;21043;-70
2022/01/09 08:11:24;;;;;;;18.37;8.43;;;;;;;-1.54;100.00;99091.09;1671349;86;21000;-71
2022/01/09 08:13:52;;;;;;;16.53;7.67;;;;;;;-1.53;100.00;99087.47;1670900;86;20996;-70
2022/01/09 08:16:19;;;;;;;17.13;6.87;;;;;;;-1.53;100.00;99079.52;1673865;85;21126;-70
2022/01/09 08:18:46;;;;;;;21.00;9.30;;;;;;;-1.51;100.00;99079.89;1674645;85;21082;-70
2022/01/09 08:21:19;;;;;;;19.80;9.23;;;;;;;-1.50;100.00;99067.00;1671320;85;21102;-69
2022/01/09 08:23:42;;;;;;;14.37;7.37;;;;;;;-1.49;100.00;99056.25;1654106;85;21535;-67
2022/01/09 08:26:09;;;;;;;12.90;6.17;;;;;;;-1.46;100.00;99057.35;1669047;85;21094;-71
2022/01/09 08:28:36;;;;;;;10.07;5.50;;;;;;;-1.48;100.00;99042.05;1667418;86;21610;-71
2022/01/09 08:31:03;;;;;;;8.63;4.93;;;;;;;-1.47;100.00;99045.53;1657380;85;21047;-69
2022/01/09 08:33:30;;;;;;;9.27;5.13;;;;;;;-1.49;100.00;99038.19;1668595;86;21070;-71
2022/01/09 08:35:57;;;;;;;11.17;5.80;;;;;;;-1.49;100.00;99032.88;1645808;87;21028;-71
2022/01/09 08:38:25;;;;;;;9.23;5.40;;;;;;;-1.49;100.00;99032.88;1677474;85;21063;-71
2022/01/09 08:40:52;;;;;;;11.13;5.57;;;;;;;-1.48;100.00;99024.81;1677511;85;21039;-70
2022/01/09 08:43:19;;;;;;;11.87;5.80;;;;;;;-1.49;100.00;98998.41;1712079;84;21030;-70
2022/01/09 08:45:46;;;;;;;15.57;7.40;;;;;;;-1.48;100.00;99001.44;1715121;83;21057;-71
2022/01/09 08:48:19;;;;;;;16.23;7.93;;;;;;;-1.49;100.00;99001.06;1715254;83;21006;-70
2022/01/09 08:50:47;;;;;;;13.47;6.23;;;;;;;-1.48;100.00;98996.97;1715176;83;21038;-71
2022/01/09 08:53:15;;;;;;;13.60;7.30;;;;;;;-1.46;100.00;98996.36;1712052;84;21066;-71
2022/01/09 08:55:42;;;;;;;17.63;8.50;;;;;;;-1.48;100.00;98991.67;1715397;83;21017;-71
2022/01/09 08:58:09;;;;;;;12.23;6.93;;;;;;;-1.47;100.00;98986.74;1711580;84;20994;-71
2022/01/09 09:00:36;;;;;;;12.60;6.73;;;;;;;-1.45;100.00;98988.78;1715365;83;21045;-70
2022/01/09 09:03:04;;;;;;;11.60;6.00;;;;;;;-1.43;100.00;98984.69;1692269;84;20981;-67
2022/01/09 09:05:31;;;;;;;16.13;6.20;;;;;;;-1.40;100.00;98976.47;1687415;85;21007;-72
2022/01/09 09:07:58;;;;;;;10.90;5.90;;;;;;;-1.39;100.00;98972.37;1734553;83;21036;-70
2022/01/09 09:10:26;;;;;;;11.17;5.50;;;;;;;-1.37;100.00;98970.94;1766350;81;20986;-70
2022/01/09 09:12:54;;;;;;;14.23;6.70;;;;;;;-1.38;100.00;98959.49;1766429;81;21017;-69
2022/01/09 09:15:22;;;;;;;11.37;5.80;;;;;;;-1.36;100.00;98963.35;1766089;81;21525;-69
2022/01/09 09:17:49;;;;;;;15.03;5.93;;;;;;;-1.35;100.00;98961.91;1766285;81;21096;-69
2022/01/09 09:20:16;;;;;;;13.47;6.33;;;;;;;-1.32;100.00;98944.89;1750970;82;21030;-67
2022/01/09 09:22:43;;;;;;;17.87;7.80;;;;;;;-1.30;100.00;98941.63;1757777;81;21030;-67
2022/01/09 09:25:11;;;;;;;19.53;8.80;;;;;;;-1.29;100.00;98932.72;1758527;81;21006;-67
2022/01/09 09:27:38;;;;;;;14.37;6.63;;;;;;;-1.28;100.00;98926.92;1765511;81;21014;-66
2022/01/09 09:30:06;;;;;;;15.13;7.50;;;;;;;-1.26;100.00;98919.69;1765310;81;21051;-67
2022/01/09 09:32:34;;;;;;;13.10;6.57;;;;;;;-1.24;100.00;98918.61;1772773;81;21530;-66
2022/01/09 09:35:02;;;;;;;13.80;7.53;;;;;;;-1.22;100.00;98911.37;1771331;81;21097;-67
2022/01/09 09:37:30;;;;;;;15.00;7.30;;;;;;;-1.24;100.00;98905.34;1771440;81;21452;-67
2022/01/09 09:39:57;;;;;;;18.47;8.57;;;;;;;-1.26;100.00;98884.71;1765205;81;21038;-67
2022/01/09 09:42:24;;;;;;;14.30;7.17;;;;;;;-1.26;100.00;98882.06;1745846;81;21737;-66
2022/01/09 09:44:52;;;;;;;17.20;8.53;;;;;;;-1.28;100.00;98873.87;1764862;81;21006;-67
2022/01/09 09:47:20;;;;;;;16.63;8.10;;;;;;;-1.29;100.00;98875.70;1771342;81;21519;-68
2022/01/09 09:49:48;;;;;;;16.00;7.93;;;;;;;-1.29;100.00;98862.44;1765410;81;21042;-66
2022/01/09 09:52:18;;;;;;;16.67;7.83;;;;;;;-1.26;100.00;98860.84;1765034;81;21034;-66
2022/01/09 09:54:47;;;;;;;13.80;7.27;;;;;;;-1.25;100.00;98849.28;1745985;81;21023;-66
2022/01/09 09:57:14;;;;;;;14.63;7.40;;;;;;;-1.23;100.00;98843.36;1741542;82;21014;-67
2022/01/09 09:59:42;;;;;;;16.73;7.80;;;;;;;-1.20;100.00;98828.52;1741928;82;21527;-68
2022/01/09 10:02:14;;;;;;;14.37;8.13;;;;;;;-1.15;100.00;98730.00;1666744;84;21030;-67
2022/01/09 10:05:02;;;;;;;15.27;7.63;;;;;;;-1.14;100.00;98689.23;1625590;88;21251;-69
2022/01/09 10:07:31;;;;;;;17.57;8.50;;;;;;;-1.11;100.00;98663.77;1630489;88;21858;-71
2022/01/09 10:10:01;;;;;;;16.27;7.90;;;;;;;-1.08;100.00;98606.95;1630875;88;21062;-70
2022/01/09 10:12:29;;;;;;;16.50;8.30;;;;;;;-1.06;100.00;98554.59;1609175;88;21065;-70
2022/01/09 10:15:00;;;;;;;17.80;8.60;;;;;;;-1.06;100.00;98350.31;1609137;88;21102;-70
2022/01/09 10:17:27;;;;;;;19.60;9.67;;;;;;;-1.03;100.00;98372.59;1609257;88;21074;-71
2022/01/09 10:20:19;;;;;;;20.30;9.93;;;;;;;-1.02;100.00;98367.16;1630479;87;21110;-70
2022/01/09 10:22:54;;;;;;;21.90;9.98;;;;;;;-0.98;100.00;98377.00;1531109;92;21082;-70
2022/01/09 10:25:40;;;;;;;19.27;9.40;;;;;;;-0.96;100.00;98363.10;1554680;92;21098;-69
2022/01/09 10:28:13;;;;;;;15.37;8.33;;;;;;;-0.94;100.00;98358.98;1551983;92;21085;-67
2022/01/09 10:30:47;;;;;;;18.62;9.18;;;;;;;-0.91;100.00;98352.91;1501610;96;21129;-71
2022/01/09 10:33:19;;;;;;;18.50;8.73;;;;;;;-0.89;100.00;98354.94;1469008;97;21145;-72
2022/01/09 10:35:47;;;;;;;16.20;8.60;;;;;;;-0.86;100.00;98348.52;1458665;98;21172;-70
2022/01/09 10:38:21;;;;;;;17.10;8.47;;;;;;;-0.82;100.00;98345.93;1468461;98;21097;-71
2022/01/09 10:40:54;;;;;;;18.23;9.73;;;;;;;-0.81;100.00;98343.64;1476499;97;21152;-70
2022/01/09 10:43:23;;;;;;;22.20;10.20;;;;;;;-0.79;100.00;98342.50;1468525;97;21150;-71
2022/01/09 10:45:59;;;;;;;19.37;10.30;;;;;;;-0.75;100.00;98338.25;1430101;99;21592;-70
2022/01/09 10:48:40;;;;;;;18.07;9.50;;;;;;;-0.72;100.00;98337.98;1384830;103;21158;-70
2022/01/09 10:51:09;;;;;;;19.33;9.70;;;;;;;-0.69;100.00;98334.55;1377135;103;21099;-69
2022/01/09 10:53:39;;;;;;;17.97;8.87;;;;;;;-0.67;100.00;98328.61;1375341;104;21126;-70
2022/01/09 10:56:09;;;;;;;20.17;9.87;;;;;;;-0.63;100.00;98338.45;1410075;101;21150;-69
2022/01/09 10:58:44;;;;;;;17.70;9.20;;;;;;;-0.63;100.00;98332.64;1386405;103;21242;-69
2022/01/09 11:01:24;;;;;;;18.40;8.77;;;;;;;-0.60;100.00;98339.00;1403241;99;21099;-71
2022/01/09 11:03:59;;;;;;;18.23;9.37;;;;;;;-0.59;100.00;98326.06;1372936;104;21143;-69
2022/01/09 11:06:30;;;;;;;18.57;9.73;;;;;;;-0.54;100.00;98322.16;1381727;102;21112;-69
2022/01/09 11:08:57;;;;;;;18.80;9.90;;;;;;;-0.53;100.00;98319.37;1379452;102;21161;-72
2022/01/09 11:13:53;;;;;;;18.70;9.87;;;;;;;-0.47;100.00;98304.17;1380559;103;21181;-72
2022/01/09 11:16:34;;;;;;;21.80;10.00;;;;;;;-0.42;100.00;98311.23;1380168;104;21237;-71
2022/01/09 11:19:11;;;;;;;19.23;9.63;;;;;;;-0.38;100.00;98301.16;1390103;101;21164;-72
2022/01/09 11:21:46;;;;;;;24.63;9.93;;;;;;;-0.33;100.00;98306.88;1447868;99;21145;-71
2022/01/09 11:24:58;;;;;;;21.57;10.47;;;;;;;-0.27;100.00;98296.16;1423271;101;21598;-71
2022/01/09 11:27:59;;;;;;;19.37;9.73;;;;;;;-0.21;100.00;98295.59;1445726;98;21212;-71
2022/01/09 11:30:52;;;;;;;20.80;9.53;;;;;;;-0.10;100.00;98287.42;1469333;97;21124;-73
2022/01/09 11:33:57;;;;;;;20.10;10.53;;;;;;;0.03;100.00;98292.39;1444861;99;21121;-71
2022/01/09 11:36:46;;;;;;;21.10;10.63;;;;;;;0.10;100.00;98286.84;1404043;102;21687;-66